LFMT/MPL METAR and TAF weather

Enter ICAO airport designator
Station Type Date Time Source
LFMT METAR 2019/02/22 23:00 UTC NOAA

LFMT 222300Z AUTO 35007KT 330V040 CAVOK 13/04 Q1026 NOSIG


Station Type Date Time Source
LFMT Decoded METAR 2019/02/22 23:00 UTC NOAA

Montpellier, France (LFMT) 43-35N 003-58E 6M
Feb 22, 2019 - 06:00 PM EST / 2019.02.22 2300 UTC
Wind: from the N (350 degrees) at 8 MPH (7 KT) (direction variable):0
Visibility: greater than 7 mile(s):0
Temperature: 55 F (13 C)
Dew Point: 39 F (4 C)
Relative Humidity: 54%
Pressure (altimeter): 30.30 in. Hg (1026 hPa)
ob: LFMT 222300Z AUTO 35007KT 330V040 CAVOK 13/04 Q1026 NOSIG
cycle: 23

Station Type Date Time Source
LFMT TAF 2019/02/22 21:21 UTC NOAA

TAF TAF LFMT 222000Z 2221/2321 36010KT CAVOK
BECMG 2312/2314 16010KT
BECMG 2319/2321 VRB05KT


Example: see airport list